createdAt,value
2023-01-30T00:01:20.696Z,0.44
2023-01-30T00:03:47.802Z,1.53
2023-01-30T00:06:15.164Z,2.10
2023-01-30T00:08:42.129Z,1.68
2023-01-30T00:11:11.010Z,0.64
2023-01-30T00:13:38.942Z,-0.29
2023-01-30T00:16:06.528Z,-0.96
2023-01-30T00:18:33.841Z,-1.46
2023-01-30T00:21:02.628Z,-1.58
2023-01-30T00:23:30.515Z,-0.44
2023-01-30T00:25:57.494Z,0.85
2023-01-30T00:28:25.215Z,1.76
2023-01-30T00:30:53.394Z,2.21
2023-01-30T00:33:21.409Z,1.25
2023-01-30T00:35:49.244Z,0.09
2023-01-30T00:38:16.269Z,-0.80
2023-01-30T00:40:43.578Z,-0.77
2023-01-30T00:43:31.957Z,0.48
2023-01-30T00:46:18.253Z,1.72
2023-01-30T00:48:45.194Z,2.15
2023-01-30T00:51:12.036Z,1.25
2023-01-30T00:53:39.411Z,0.14
2023-01-30T00:56:06.753Z,-0.72
2023-01-30T00:58:34.513Z,-1.32
2023-01-30T01:01:01.495Z,-1.68
2023-01-30T01:03:28.490Z,-0.97
2023-01-30T01:05:55.408Z,0.18
2023-01-30T01:08:23.333Z,1.03
2023-01-30T01:10:50.691Z,1.57
2023-01-30T01:13:17.809Z,2.01
2023-01-30T01:15:44.637Z,2.51
2023-01-30T01:18:11.648Z,2.08
2023-01-30T01:20:52.044Z,0.94
2023-01-30T01:23:18.958Z,-0.09
2023-01-30T01:25:46.049Z,-0.76
2023-01-30T01:28:13.390Z,-0.95
2023-01-30T01:30:40.691Z,0.04
2023-01-30T01:33:07.810Z,1.17
2023-01-30T01:35:35.171Z,2.12
2023-01-30T01:38:02.280Z,2.84
2023-01-30T01:40:47.753Z,3.34
2023-01-30T01:43:15.900Z,3.46
2023-01-30T01:45:44.212Z,2.55
2023-01-30T01:48:14.797Z,1.16
2023-01-30T01:50:48.809Z,0.18
2023-01-30T01:53:17.891Z,-0.59
2023-01-30T01:55:48.917Z,-1.12
2023-01-30T01:58:18.677Z,-1.48
2023-01-30T02:00:46.696Z,-0.76
2023-01-30T02:03:17.989Z,0.65
2023-01-30T02:05:47.249Z,1.65
2023-01-30T02:08:40.351Z,2.29
2023-01-30T02:11:07.288Z,2.78
2023-01-30T02:13:34.375Z,3.11
2023-01-30T02:16:02.224Z,3.34
2023-01-30T02:18:31.014Z,2.88
2023-01-30T02:21:16.657Z,1.59
2023-01-30T02:23:52.423Z,0.41
2023-01-30T02:26:43.959Z,-0.42
2023-01-30T02:29:27.009Z,-0.74
2023-01-30T02:32:09.663Z,0.52
2023-01-30T02:34:43.094Z,1.71
2023-01-30T02:37:21.566Z,2.35
2023-01-30T02:40:01.728Z,2.49
2023-01-30T02:42:34.807Z,1.36
2023-01-30T02:45:16.744Z,0.32
2023-01-30T02:48:02.566Z,-0.50
2023-01-30T02:50:31.330Z,-1.08
2023-01-30T02:52:58.420Z,-1.37
2023-01-30T02:55:26.590Z,-0.55
2023-01-30T02:57:53.629Z,0.73
2023-01-30T03:00:24.262Z,1.50
2023-01-30T03:03:07.429Z,2.09
2023-01-30T03:05:46.816Z,2.55
2023-01-30T03:08:13.869Z,2.82
2023-01-30T03:10:55.141Z,2.41
2023-01-30T03:13:35.650Z,1.25
2023-01-30T03:16:05.681Z,0.28
2023-01-30T03:18:32.562Z,-0.41
2023-01-30T03:21:04.414Z,-0.81
2023-01-30T03:23:31.153Z,-0.14
2023-01-30T03:25:58.917Z,0.85
2023-01-30T03:28:27.294Z,1.55
2023-01-30T03:30:54.396Z,1.90
2023-01-30T03:33:21.794Z,2.02
2023-01-30T03:35:49.383Z,2.05
2023-01-30T03:38:16.745Z,1.37
2023-01-30T03:40:44.047Z,0.45
2023-01-30T03:43:11.464Z,-0.35
2023-01-30T03:45:38.562Z,-0.92
2023-01-30T03:48:05.595Z,-1.07
2023-01-30T03:50:32.585Z,-0.19
2023-01-30T03:52:59.690Z,1.00
2023-01-30T03:55:26.664Z,1.71
2023-01-30T03:57:57.366Z,2.15
2023-01-30T04:00:24.310Z,2.57
2023-01-30T04:02:51.556Z,2.54
2023-01-30T04:05:19.189Z,1.58
2023-01-30T04:07:46.508Z,0.60
2023-01-30T04:10:15.796Z,-0.14
2023-01-30T04:12:43.216Z,-0.69
2023-01-30T04:15:10.775Z,-1.09
2023-01-30T04:17:37.923Z,-0.87
2023-01-30T04:20:05.544Z,0.42
2023-01-30T04:22:32.674Z,1.58
2023-01-30T04:24:59.562Z,2.24
2023-01-30T04:27:26.314Z,2.71
2023-01-30T04:29:53.156Z,2.96
2023-01-30T04:32:20.275Z,2.22
2023-01-30T04:34:47.441Z,1.13
2023-01-30T04:37:14.401Z,0.24
2023-01-30T04:39:41.232Z,-0.37
2023-01-30T04:42:08.453Z,-0.82
2023-01-30T04:44:35.410Z,-0.97
2023-01-30T04:47:02.425Z,0.04
2023-01-30T04:49:29.406Z,1.27
2023-01-30T04:51:56.249Z,2.17
2023-01-30T04:54:23.220Z,2.80
2023-01-30T04:56:50.559Z,3.34
2023-01-30T04:59:17.593Z,3.44
2023-01-30T05:01:44.707Z,2.37
2023-01-30T05:04:12.021Z,1.23
2023-01-30T05:06:39.143Z,0.39
2023-01-30T05:09:06.418Z,-0.22
2023-01-30T05:11:33.956Z,-0.66
2023-01-30T05:14:00.815Z,-1.01
2023-01-30T05:16:27.985Z,-1.25
2023-01-30T05:18:54.983Z,-1.24
2023-01-30T05:21:23.373Z,-0.23
2023-01-30T05:23:51.220Z,1.03
2023-01-30T05:26:17.985Z,2.05
2023-01-30T05:28:44.904Z,2.72
2023-01-30T05:31:13.548Z,2.96
2023-01-30T05:33:41.239Z,2.28
2023-01-30T05:36:08.283Z,1.22
2023-01-30T05:38:35.304Z,0.45
2023-01-30T05:41:10.156Z,-0.14
2023-01-30T05:43:37.003Z,-0.58
2023-01-30T05:46:05.287Z,-0.90
2023-01-30T05:48:33.247Z,-1.13
2023-01-30T05:51:00.280Z,-0.87
2023-01-30T05:53:28.555Z,0.12
2023-01-30T05:55:59.762Z,1.13
2023-01-30T05:58:27.189Z,2.00
2023-01-30T06:00:54.291Z,2.34
2023-01-30T06:03:21.912Z,1.55
2023-01-30T06:05:49.274Z,0.65
2023-01-30T06:08:16.391Z,0.00
2023-01-30T06:10:46.062Z,-0.49
2023-01-30T06:13:13.428Z,-0.40
2023-01-30T06:15:40.385Z,0.78
2023-01-30T06:18:07.671Z,1.91
2023-01-30T06:20:34.757Z,2.73
2023-01-30T06:23:01.798Z,3.18
2023-01-30T06:25:28.542Z,2.72
2023-01-30T06:27:55.680Z,1.64
2023-01-30T06:30:22.632Z,0.74
2023-01-30T06:32:52.467Z,0.08
2023-01-30T06:35:20.232Z,-0.38
2023-01-30T06:37:47.136Z,-0.70
2023-01-30T06:40:14.592Z,-0.92
2023-01-30T06:42:47.909Z,-1.09
2023-01-30T06:45:16.257Z,-0.58
2023-01-30T06:47:53.678Z,0.80
2023-01-30T06:50:21.843Z,2.02
2023-01-30T06:52:49.786Z,2.77
2023-01-30T06:55:18.543Z,3.20
2023-01-30T06:57:46.159Z,2.79
2023-01-30T07:00:14.874Z,1.80
2023-01-30T07:02:42.267Z,0.96
2023-01-30T07:05:10.068Z,0.35
2023-01-30T07:07:37.833Z,-0.12
2023-01-30T07:10:08.849Z,-0.47
2023-01-30T07:12:36.709Z,-0.73
2023-01-30T07:15:04.780Z,-0.54
2023-01-30T07:17:31.710Z,0.66
2023-01-30T07:19:58.553Z,1.78
2023-01-30T07:22:25.909Z,2.57
2023-01-30T07:24:53.145Z,3.00
2023-01-30T07:27:19.920Z,2.36
2023-01-30T07:29:47.140Z,1.41
2023-01-30T07:32:15.309Z,0.67
2023-01-30T07:34:42.355Z,0.15
2023-01-30T07:37:09.402Z,-0.22
2023-01-30T07:39:36.551Z,-0.48
2023-01-30T07:42:03.799Z,-0.14
2023-01-30T07:44:30.740Z,0.92
2023-01-30T07:46:57.528Z,1.81
2023-01-30T07:49:24.520Z,2.41
2023-01-30T07:51:51.282Z,2.52
2023-01-30T07:54:18.472Z,1.75
2023-01-30T07:56:45.869Z,0.97
2023-01-30T07:59:12.953Z,0.42
2023-01-30T08:01:39.952Z,0.00
2023-01-30T08:04:07.031Z,-0.29
2023-01-30T08:06:39.419Z,-0.16
2023-01-30T08:09:07.379Z,1.06
2023-01-30T08:11:34.707Z,2.27
2023-01-30T08:14:01.757Z,2.68
2023-01-30T08:16:28.816Z,1.90
2023-01-30T08:18:56.005Z,1.14
2023-01-30T08:21:22.793Z,0.64
2023-01-30T08:23:50.114Z,0.34
2023-01-30T08:26:17.184Z,0.14
2023-01-30T08:28:44.482Z,0.56
2023-01-30T08:31:12.792Z,1.94
2023-01-30T08:33:40.397Z,3.07
2023-01-30T08:36:07.590Z,3.14
2023-01-30T08:38:35.049Z,2.36
2023-01-30T08:41:04.861Z,1.69
2023-01-30T08:43:32.159Z,1.27
2023-01-30T08:45:59.446Z,1.01
2023-01-30T08:48:28.300Z,0.82
2023-01-30T08:50:57.352Z,0.65
2023-01-30T08:53:24.690Z,0.47
2023-01-30T08:55:52.360Z,0.83
2023-01-30T08:58:22.877Z,2.20
2023-01-30T09:00:51.082Z,3.42
2023-01-30T09:03:19.038Z,4.13
2023-01-30T09:05:46.429Z,3.70
2023-01-30T09:08:13.672Z,2.97
2023-01-30T09:10:40.675Z,2.48
2023-01-30T09:13:09.191Z,2.11
2023-01-30T09:15:36.199Z,1.77
2023-01-30T09:18:03.642Z,1.47
2023-01-30T09:20:30.957Z,1.21
2023-01-30T09:22:57.734Z,1.04
2023-01-30T09:25:24.689Z,0.86
2023-01-30T09:27:51.588Z,0.72
2023-01-30T09:30:19.603Z,0.88
2023-01-30T09:32:47.192Z,1.91
2023-01-30T09:35:14.389Z,2.89
2023-01-30T09:37:47.412Z,3.50
2023-01-30T09:40:16.296Z,2.96
2023-01-30T09:42:43.608Z,2.17
2023-01-30T09:45:36.976Z,1.57
2023-01-30T09:48:04.032Z,1.10
2023-01-30T09:50:46.123Z,0.85
2023-01-30T09:53:16.643Z,0.67
2023-01-30T09:55:43.998Z,0.53
2023-01-30T09:58:17.507Z,0.42
2023-01-30T10:00:44.335Z,0.58
2023-01-30T10:03:13.371Z,1.67
2023-01-30T10:05:46.508Z,2.87
2023-01-30T10:08:22.615Z,3.67
2023-01-30T10:11:04.407Z,3.93
2023-01-30T10:13:55.522Z,3.00
2023-01-30T10:16:27.748Z,2.04
2023-01-30T10:19:34.934Z,1.40
2023-01-30T10:22:06.736Z,0.86
2023-01-30T10:24:36.585Z,1.40
2023-01-30T10:27:04.921Z,2.52
2023-01-30T10:29:33.901Z,3.16
2023-01-30T10:32:16.469Z,3.75
2023-01-30T10:35:06.216Z,3.85
2023-01-30T10:37:36.525Z,2.86
2023-01-30T10:40:08.054Z,2.01
2023-01-30T10:42:41.177Z,1.40
2023-01-30T10:45:13.892Z,1.46
2023-01-30T10:47:47.920Z,2.42
2023-01-30T10:50:21.152Z,3.07
2023-01-30T10:53:02.047Z,3.60
2023-01-30T10:55:47.500Z,4.04
2023-01-30T10:58:20.693Z,3.54
2023-01-30T11:00:52.564Z,2.64
2023-01-30T11:03:27.703Z,1.97
2023-01-30T11:06:06.286Z,1.48
2023-01-30T11:08:35.166Z,1.90
2023-01-30T11:11:21.724Z,3.15
2023-01-30T11:13:49.059Z,4.32
2023-01-30T11:16:16.140Z,4.96
2023-01-30T11:19:22.247Z,4.60
2023-01-30T11:21:53.945Z,3.36
2023-01-30T11:24:25.395Z,2.57
2023-01-30T11:26:53.796Z,2.01
2023-01-30T11:29:28.436Z,1.63
2023-01-30T11:31:55.966Z,1.33
2023-01-30T11:34:24.585Z,1.49
2023-01-30T11:36:52.071Z,2.79
2023-01-30T11:39:22.280Z,4.02
2023-01-30T11:41:55.799Z,4.93
2023-01-30T11:44:29.704Z,5.16
2023-01-30T11:47:01.241Z,4.15
2023-01-30T11:51:31.778Z,3.24
2023-01-30T11:52:37.226Z,2.55
2023-01-30T11:55:08.908Z,2.09
2023-01-30T11:57:43.897Z,1.81
2023-01-30T12:00:34.284Z,2.42
2023-01-30T12:03:05.387Z,3.98
2023-01-30T12:05:34.950Z,5.08
2023-01-30T12:08:40.534Z,5.75
2023-01-30T12:11:24.827Z,5.21
2023-01-30T12:13:52.322Z,4.09
2023-01-30T12:16:38.309Z,3.30
2023-01-30T12:19:30.695Z,2.72
2023-01-30T12:22:16.964Z,2.28
2023-01-30T12:24:51.638Z,2.02
2023-01-30T12:27:30.602Z,2.62
2023-01-30T12:30:01.430Z,3.99
2023-01-30T12:32:29.585Z,5.02
2023-01-30T12:34:56.825Z,5.28
2023-01-30T12:37:39.277Z,4.50
2023-01-30T12:40:09.165Z,3.61
2023-01-30T12:43:06.122Z,3.02
2023-01-30T12:45:34.758Z,2.51
2023-01-30T12:48:02.039Z,2.19
2023-01-30T12:50:47.995Z,1.97
2023-01-30T12:53:18.007Z,2.44
2023-01-30T12:55:55.402Z,3.89
2023-01-30T12:58:22.635Z,5.45
2023-01-30T13:00:49.562Z,6.34
2023-01-30T13:03:35.371Z,6.74
2023-01-30T13:06:05.592Z,6.47
2023-01-30T13:08:35.193Z,5.23
2023-01-30T13:11:13.639Z,4.18
2023-01-30T13:13:43.316Z,3.42
2023-01-30T13:16:13.525Z,2.90
2023-01-30T13:18:53.089Z,2.49
2023-01-30T13:21:20.237Z,2.18
2023-01-30T13:23:50.446Z,2.73
2023-01-30T13:26:20.069Z,4.12
2023-01-30T13:28:52.039Z,5.22
2023-01-30T13:31:23.054Z,5.99
2023-01-30T13:34:07.149Z,6.28
2023-01-30T13:36:40.868Z,5.26
2023-01-30T13:39:28.013Z,4.18
2023-01-30T13:41:57.485Z,3.34
2023-01-30T13:44:31.312Z,2.82
2023-01-30T13:47:00.487Z,2.49
2023-01-30T13:49:42.842Z,3.24
2023-01-30T13:52:15.687Z,4.79
2023-01-30T13:54:49.371Z,6.04
2023-01-30T13:57:37.204Z,6.73
2023-01-30T14:00:13.484Z,7.16
2023-01-30T14:03:00.526Z,6.77
2023-01-30T14:05:48.521Z,5.49
2023-01-30T14:08:23.500Z,4.43
2023-01-30T14:10:50.846Z,3.74
2023-01-30T14:13:18.472Z,3.21
2023-01-30T14:15:57.074Z,2.79
2023-01-30T14:18:27.194Z,2.56
2023-01-30T14:21:12.545Z,3.57
2023-01-30T14:23:40.473Z,5.06
2023-01-30T14:26:07.618Z,5.90
2023-01-30T14:28:37.976Z,6.68
2023-01-30T14:31:05.563Z,7.28
2023-01-30T14:33:36.931Z,7.17
2023-01-30T14:36:07.005Z,5.93
2023-01-30T14:38:35.251Z,4.79
2023-01-30T14:41:02.594Z,3.93
2023-01-30T14:43:35.884Z,3.30
2023-01-30T14:46:23.771Z,2.90
2023-01-30T14:48:54.137Z,3.76
2023-01-30T14:51:45.945Z,4.91
2023-01-30T14:54:13.760Z,5.77
2023-01-30T14:56:50.447Z,6.35
2023-01-30T14:59:17.549Z,6.98
2023-01-30T15:02:04.962Z,7.08
2023-01-30T15:04:34.070Z,5.78
2023-01-30T15:07:02.453Z,4.63
2023-01-30T15:09:31.190Z,3.78
2023-01-30T15:12:21.477Z,3.17
2023-01-30T15:15:17.991Z,2.72
2023-01-30T15:17:46.908Z,3.63
2023-01-30T15:20:32.619Z,4.86
2023-01-30T15:23:11.966Z,5.79
2023-01-30T15:25:57.806Z,6.36
2023-01-30T15:28:33.670Z,6.93
2023-01-30T15:31:00.996Z,6.38
2023-01-30T15:33:31.959Z,5.19
2023-01-30T15:36:00.083Z,4.22
2023-01-30T15:38:31.853Z,3.51
2023-01-30T15:41:03.977Z,3.90
2023-01-30T15:43:49.611Z,5.07
2023-01-30T15:46:16.490Z,5.99
2023-01-30T15:48:46.157Z,6.45
2023-01-30T15:51:14.440Z,6.80
2023-01-30T15:53:45.935Z,6.17
2023-01-30T15:56:18.152Z,5.08
2023-01-30T15:58:45.751Z,4.22
2023-01-30T16:01:17.379Z,3.60
2023-01-30T16:03:44.504Z,3.12
2023-01-30T16:06:28.648Z,2.77
2023-01-30T16:08:57.151Z,2.47
2023-01-30T16:11:37.671Z,2.48
2023-01-30T16:14:04.769Z,3.73
2023-01-30T16:16:32.898Z,5.03
2023-01-30T16:19:02.514Z,5.96
2023-01-30T16:21:34.457Z,6.58
2023-01-30T16:24:01.624Z,7.01
2023-01-30T16:26:28.810Z,7.08
2023-01-30T16:29:01.044Z,6.12
2023-01-30T16:31:32.062Z,4.99
2023-01-30T16:33:59.221Z,4.19
2023-01-30T16:36:26.178Z,3.63
2023-01-30T16:38:55.134Z,3.20
2023-01-30T16:41:29.447Z,2.86
2023-01-30T16:44:15.458Z,2.99
2023-01-30T16:46:46.497Z,4.48
2023-01-30T16:49:36.295Z,5.78
2023-01-30T16:52:26.616Z,6.69
2023-01-30T16:54:55.194Z,7.20
2023-01-30T16:57:25.850Z,7.45
2023-01-30T16:59:52.716Z,7.27
2023-01-30T17:02:29.487Z,6.09
2023-01-30T17:04:56.323Z,4.94
2023-01-30T17:07:37.650Z,4.11
2023-01-30T17:10:04.685Z,3.79
2023-01-30T17:12:46.815Z,4.83
2023-01-30T17:15:13.703Z,6.09
2023-01-30T17:17:41.051Z,6.80
2023-01-30T17:20:08.453Z,7.23
2023-01-30T17:22:35.960Z,7.50
2023-01-30T17:25:04.740Z,7.34
2023-01-30T17:27:32.097Z,6.24
2023-01-30T17:29:59.005Z,5.18
2023-01-30T17:32:26.083Z,4.40
2023-01-30T17:34:53.166Z,3.82
2023-01-30T17:37:24.236Z,3.40
2023-01-30T17:39:51.250Z,3.41
2023-01-30T17:42:21.565Z,4.59
2023-01-30T17:44:48.988Z,5.88
2023-01-30T17:47:15.727Z,6.88
2023-01-30T17:49:42.849Z,7.53
2023-01-30T17:52:09.923Z,7.94
2023-01-30T17:54:36.691Z,8.22
2023-01-30T17:57:05.515Z,8.47
2023-01-30T17:59:33.002Z,8.71
2023-01-30T18:02:00.676Z,8.85
2023-01-30T18:04:27.712Z,8.87
2023-01-30T18:06:57.314Z,7.86
2023-01-30T18:09:25.184Z,6.49
2023-01-30T18:11:52.685Z,5.42
2023-01-30T18:14:19.571Z,4.66
2023-01-30T18:16:47.205Z,4.07
2023-01-30T18:19:16.377Z,3.70
2023-01-30T18:21:46.968Z,4.49
2023-01-30T18:24:16.422Z,5.73
2023-01-30T18:26:53.794Z,6.73
2023-01-30T18:29:22.852Z,7.48
2023-01-30T18:31:50.192Z,7.96
2023-01-30T18:34:17.131Z,7.90
2023-01-30T18:36:44.184Z,6.76
2023-01-30T18:39:12.296Z,5.58
2023-01-30T18:41:39.165Z,4.74
2023-01-30T18:44:07.092Z,4.14
2023-01-30T18:46:34.848Z,3.67
2023-01-30T18:49:01.557Z,3.32
2023-01-30T18:51:29.815Z,3.06
2023-01-30T18:53:57.085Z,3.23
2023-01-30T18:56:25.730Z,4.52
2023-01-30T18:58:54.393Z,5.79
2023-01-30T19:01:22.939Z,6.81
2023-01-30T19:03:50.155Z,7.45
2023-01-30T19:06:19.280Z,7.94
2023-01-30T19:08:46.408Z,8.23
2023-01-30T19:11:32.917Z,8.48
2023-01-30T19:13:59.817Z,8.77
2023-01-30T19:16:28.185Z,8.35
2023-01-30T19:18:55.688Z,7.03
2023-01-30T19:21:23.497Z,5.90
2023-01-30T19:23:51.010Z,5.06
2023-01-30T19:26:19.030Z,4.41
2023-01-30T19:28:47.024Z,3.91
2023-01-30T19:31:15.580Z,3.64
2023-01-30T19:33:46.215Z,4.57
2023-01-30T19:36:14.732Z,5.91
2023-01-30T19:38:43.312Z,6.90
2023-01-30T19:41:17.611Z,7.61
2023-01-30T19:43:44.469Z,8.08
2023-01-30T19:46:12.327Z,8.44
2023-01-30T19:48:40.768Z,8.79
2023-01-30T19:51:15.495Z,8.98
2023-01-30T19:53:43.910Z,8.64
2023-01-30T19:56:12.051Z,7.35
2023-01-30T19:58:39.443Z,6.13
2023-01-30T20:01:11.401Z,5.25
2023-01-30T20:03:39.165Z,4.57
2023-01-30T20:06:06.927Z,4.03
2023-01-30T20:08:35.925Z,3.62
2023-01-30T20:11:03.885Z,3.28
2023-01-30T20:13:31.128Z,3.02
2023-01-30T20:16:06.384Z,2.80
2023-01-30T20:18:35.770Z,2.65
2023-01-30T20:21:07.117Z,3.37
2023-01-30T20:23:34.176Z,5.00
2023-01-30T20:26:03.451Z,6.32
2023-01-30T20:28:30.365Z,7.24
2023-01-30T20:30:57.246Z,7.80
2023-01-30T20:33:25.014Z,8.25
2023-01-30T20:35:52.163Z,8.63
2023-01-30T20:38:19.049Z,8.92
2023-01-30T20:40:47.548Z,9.09
2023-01-30T20:43:14.628Z,9.19
2023-01-30T20:45:41.556Z,8.30
2023-01-30T20:48:08.569Z,7.02
2023-01-30T20:50:35.405Z,6.02
2023-01-30T20:53:02.795Z,5.29
2023-01-30T20:55:29.650Z,4.75
2023-01-30T20:57:56.903Z,4.31
2023-01-30T21:00:23.965Z,3.97
2023-01-30T21:02:51.496Z,3.68
2023-01-30T21:05:19.719Z,3.44
2023-01-30T21:07:47.178Z,3.23
2023-01-30T21:10:14.155Z,3.07
2023-01-30T21:12:40.904Z,2.92
2023-01-30T21:15:08.659Z,2.79
2023-01-30T21:17:35.730Z,2.69
2023-01-30T21:20:02.757Z,2.60
2023-01-30T21:22:29.905Z,2.52
2023-01-30T21:24:57.146Z,2.46
2023-01-30T21:27:24.087Z,2.41
2023-01-30T21:29:51.146Z,2.39
2023-01-30T21:32:18.081Z,3.17
2023-01-30T21:34:44.812Z,4.71
2023-01-30T21:37:30.605Z,5.99
2023-01-30T21:40:16.288Z,7.01
2023-01-30T21:43:01.860Z,7.89
2023-01-30T21:45:28.848Z,8.60
2023-01-30T21:47:55.853Z,9.06
2023-01-30T21:50:22.895Z,9.40
2023-01-30T21:52:49.936Z,9.65
2023-01-30T21:55:17.278Z,9.18
2023-01-30T21:57:44.336Z,7.88
2023-01-30T22:00:11.479Z,6.77
2023-01-30T22:02:38.811Z,5.88
2023-01-30T22:05:06.088Z,5.20
2023-01-30T22:07:33.132Z,4.66
2023-01-30T22:10:02.067Z,4.21
2023-01-30T22:12:29.326Z,3.82
2023-01-30T22:14:56.112Z,3.51
2023-01-30T22:17:23.067Z,3.24
2023-01-30T22:19:50.299Z,3.00
2023-01-30T22:22:17.450Z,2.79
2023-01-30T22:24:44.777Z,2.63
2023-01-30T22:27:11.846Z,2.64
2023-01-30T22:29:38.562Z,3.61
2023-01-30T22:32:05.752Z,4.93
2023-01-30T22:34:35.790Z,6.15
2023-01-30T22:37:03.206Z,7.05
2023-01-30T22:39:30.046Z,7.68
2023-01-30T22:41:57.407Z,8.06
2023-01-30T22:44:24.798Z,8.28
2023-01-30T22:46:52.741Z,8.45
2023-01-30T22:49:19.738Z,8.60
2023-01-30T22:51:47.105Z,8.65
2023-01-30T22:54:16.259Z,8.62
2023-01-30T22:56:44.938Z,8.57
2023-01-30T22:59:12.338Z,8.72
2023-01-30T23:01:43.090Z,8.89
2023-01-30T23:04:14.422Z,8.98
2023-01-30T23:06:41.770Z,8.93
2023-01-30T23:09:09.815Z,8.82
2023-01-30T23:11:39.150Z,8.35
2023-01-30T23:14:14.126Z,7.00
2023-01-30T23:16:42.706Z,5.72
2023-01-30T23:19:10.769Z,4.80
2023-01-30T23:21:39.172Z,4.12
2023-01-30T23:24:16.711Z,3.60
2023-01-30T23:26:45.054Z,3.18
2023-01-30T23:29:16.177Z,2.86
2023-01-30T23:31:44.377Z,2.58
2023-01-30T23:34:13.328Z,2.55
2023-01-30T23:36:40.318Z,3.71
2023-01-30T23:39:07.267Z,5.15
2023-01-30T23:41:35.384Z,6.19
2023-01-30T23:44:02.671Z,6.87
2023-01-30T23:46:31.396Z,7.43
2023-01-30T23:48:59.885Z,7.88
2023-01-30T23:51:28.772Z,8.22
2023-01-30T23:53:56.490Z,8.44
2023-01-30T23:56:25.371Z,8.60
2023-01-30T23:58:52.420Z,8.71
